Search for airport 
image banner adimage banner adimage banner ad
image banner ad

31PA - Foxcatcher Farm

Located in Newtown Square, United States

ICAO - 31PA, IATA -

Data provided by Airmate  

General information

Coordinates: N39°59'52" W75°24'55"
Elevation is 440 feet MSL.
Magnetic variation is -12° East
View others Airports in Pennsylvania

Operational data

Special qualification required
Current time UTC:
Current local time:
Weather at : KOQN - Brandywine ( 14 km )
METAR: KOQN 071315Z AUTO 08004KT 10SM CLR 13/00 A2992 RMK AO2
View NOTAMs / SUP AIP / TFR affecting this airport [VIEW]
Communications frequencies: [VIEW]

Runways:

Airport contact information

Address: Newtown Square United States

Satellite view of 31PA